Terminal Aerodrome Forecast
Issued by NWS

Home | Current Version | Previous Version | Text Only | Print | Product List | Glossary On
Versions: 1 2 3 4 5 6 7 8 9 10 11 12 13 14 15 16 17 18 19 20 21 22
000
FTUS41 KBGM 230500
TAFELM
TAF
KELM 230540Z 2306/2406 24007KT P6SM -SHRA OVC035 WS020/25045KT
     FM231000 23004KT P6SM BKN035 OVC080
     FM232000 16005KT P6SM SCT035 BKN080
     FM240400 16005KT P6SM -SHRA OVC018 WS015/18045KT=

USA.gov is the U.S. government's official web portal to all federal, state and local government web resources and services.